createdAt,value
2022-09-06T00:02:22.396Z,29.80
2022-09-06T00:04:49.411Z,26.80
2022-09-06T00:07:16.234Z,21.60
2022-09-06T00:09:43.059Z,25.95
2022-09-06T00:12:09.899Z,28.35
2022-09-06T00:14:36.777Z,25.98
2022-09-06T00:17:03.662Z,27.33
2022-09-06T00:19:30.529Z,27.50
2022-09-06T00:21:57.422Z,27.35
2022-09-06T00:24:24.285Z,28.58
2022-09-06T00:26:51.098Z,30.60
2022-09-06T00:29:18.043Z,27.17
2022-09-06T00:31:44.879Z,28.27
2022-09-06T00:34:11.750Z,45.55
2022-09-06T00:36:38.584Z,31.15
2022-09-06T00:39:05.432Z,29.60
2022-09-06T00:41:32.248Z,30.17
2022-09-06T00:43:59.030Z,27.92
2022-09-06T00:46:29.173Z,31.65
2022-09-06T00:49:09.707Z,34.33
2022-09-06T00:51:37.105Z,29.88
2022-09-06T00:54:06.702Z,31.92
2022-09-06T00:56:38.680Z,27.85
2022-09-06T00:59:05.582Z,29.70
2022-09-06T01:01:32.493Z,30.20
2022-09-06T01:04:00.095Z,30.63
2022-09-06T01:06:37.549Z,31.17
2022-09-06T01:09:48.079Z,31.35
2022-09-06T01:12:32.953Z,29.95
2022-09-06T01:15:34.482Z,30.60
2022-09-06T01:18:20.011Z,36.15
2022-09-06T01:21:14.737Z,33.95
2022-09-06T01:24:04.493Z,31.88
2022-09-06T01:27:15.746Z,31.17
2022-09-06T01:29:52.221Z,30.35
2022-09-06T01:32:27.873Z,33.75
2022-09-06T01:35:04.676Z,33.33
2022-09-06T01:37:31.858Z,27.58
2022-09-06T01:39:58.681Z,33.17
2022-09-06T01:42:30.151Z,31.15
2022-09-06T01:45:05.615Z,30.35
2022-09-06T01:47:42.070Z,30.58
2022-09-06T01:50:36.766Z,26.35
2022-09-06T01:53:22.018Z,28.40
2022-09-06T01:55:54.578Z,30.45
2022-09-06T01:58:44.951Z,28.13
2022-09-06T02:01:42.464Z,29.10
2022-09-06T02:04:36.366Z,27.67
2022-09-06T02:07:16.479Z,30.60
2022-09-06T02:09:48.680Z,34.72
2022-09-06T02:12:19.272Z,36.55
2022-09-06T02:15:35.750Z,31.38
2022-09-06T02:18:09.003Z,32.08
2022-09-06T02:20:42.189Z,32.13
2022-09-06T02:23:10.306Z,35.40
2022-09-06T02:25:47.404Z,30.35
2022-09-06T02:28:15.223Z,33.92
2022-09-06T02:30:46.657Z,32.80
2022-09-06T02:33:18.325Z,30.10
2022-09-06T02:35:50.329Z,31.63
2022-09-06T02:38:17.898Z,32.97
2022-09-06T02:40:46.155Z,29.63
2022-09-06T02:43:13.038Z,34.17
2022-09-06T02:45:39.941Z,35.10
2022-09-06T02:48:06.910Z,32.58
2022-09-06T02:50:33.798Z,31.25
2022-09-06T02:53:02.431Z,31.30
2022-09-06T02:55:29.381Z,32.83
2022-09-06T02:57:56.302Z,35.08
2022-09-06T03:00:23.083Z,39.40
2022-09-06T03:02:50.026Z,39.88
2022-09-06T03:05:17.033Z,36.20
2022-09-06T03:07:43.981Z,38.85
2022-09-06T03:10:10.757Z,37.92
2022-09-06T03:12:37.613Z,38.42
2022-09-06T03:15:04.861Z,41.10
2022-09-06T03:17:31.696Z,44.63
2022-09-06T03:19:58.471Z,46.65
2022-09-06T03:22:25.366Z,44.53
2022-09-06T03:24:52.168Z,47.25
2022-09-06T03:27:19.144Z,50.17
2022-09-06T03:29:45.993Z,51.28
2022-09-06T03:32:12.909Z,52.40
2022-09-06T03:34:39.736Z,46.33
2022-09-06T03:37:07.076Z,50.13
2022-09-06T03:39:34.174Z,54.63
2022-09-06T03:42:01.108Z,58.35
2022-09-06T03:44:27.954Z,44.55
2022-09-06T03:46:54.880Z,43.70
2022-09-06T03:49:21.837Z,41.83
2022-09-06T03:51:48.679Z,37.30
2022-09-06T03:54:15.597Z,37.10
2022-09-06T03:56:42.592Z,30.25
2022-09-06T03:59:09.393Z,34.25
2022-09-06T04:01:36.281Z,30.40
2022-09-06T04:04:03.408Z,35.72
2022-09-06T04:06:30.354Z,33.33
2022-09-06T04:08:57.084Z,31.20
2022-09-06T04:11:23.923Z,30.90
2022-09-06T04:13:50.799Z,30.33
2022-09-06T04:16:18.732Z,29.15
2022-09-06T04:18:45.826Z,25.60
2022-09-06T04:21:12.777Z,25.88
2022-09-06T04:23:40.147Z,26.02
2022-09-06T04:26:07.142Z,30.60
2022-09-06T04:28:33.999Z,27.60
2022-09-06T04:31:05.003Z,27.50
2022-09-06T04:33:35.016Z,33.08
2022-09-06T04:36:04.291Z,28.45
2022-09-06T04:38:35.899Z,26.30
2022-09-06T04:41:03.191Z,23.63
2022-09-06T04:43:30.007Z,25.73
2022-09-06T04:45:57.029Z,23.83
2022-09-06T04:48:23.890Z,19.45
2022-09-06T04:50:50.799Z,25.13
2022-09-06T04:53:17.668Z,18.77
2022-09-06T04:55:44.469Z,20.75
2022-09-06T04:58:11.391Z,26.00
2022-09-06T05:00:39.005Z,20.85
2022-09-06T05:03:05.918Z,23.63
2022-09-06T05:05:32.795Z,19.33
2022-09-06T05:07:59.599Z,16.90
2022-09-06T05:10:26.617Z,20.05
2022-09-06T05:12:54.741Z,17.90
2022-09-06T05:15:22.668Z,17.33
2022-09-06T05:17:49.612Z,21.63
2022-09-06T05:20:17.106Z,14.95
2022-09-06T05:22:51.644Z,13.57
2022-09-06T05:25:18.589Z,15.48
2022-09-06T05:27:45.463Z,15.75
2022-09-06T05:30:13.081Z,14.68
2022-09-06T05:32:39.963Z,9.77
2022-09-06T05:35:09.737Z,14.25
2022-09-06T05:37:36.720Z,20.33
2022-09-06T05:40:04.055Z,10.98
2022-09-06T05:42:30.903Z,18.67
2022-09-06T05:44:57.788Z,18.30
2022-09-06T05:47:24.769Z,22.58
2022-09-06T05:49:52.192Z,18.52
2022-09-06T05:52:19.877Z,11.85
2022-09-06T05:54:46.743Z,8.90
2022-09-06T05:57:15.180Z,8.85
2022-09-06T05:59:41.980Z,6.68
2022-09-06T06:02:10.306Z,7.53
2022-09-06T06:04:37.259Z,9.27
2022-09-06T06:07:04.242Z,7.32
2022-09-06T06:09:30.991Z,8.77
2022-09-06T06:11:57.863Z,7.25
2022-09-06T06:14:24.935Z,5.60
2022-09-06T06:16:52.067Z,7.18
2022-09-06T06:19:19.046Z,5.65
2022-09-06T06:21:45.854Z,4.90
2022-09-06T06:24:12.739Z,6.60
2022-09-06T06:26:39.653Z,4.88
2022-09-06T06:29:09.727Z,7.05
2022-09-06T06:31:38.310Z,5.65
2022-09-06T06:34:05.429Z,7.22
2022-09-06T06:36:34.364Z,8.65
2022-09-06T06:39:02.697Z,4.97
2022-09-06T06:41:32.341Z,5.07
2022-09-06T06:44:06.233Z,6.32
2022-09-06T06:46:37.824Z,5.85
2022-09-06T06:49:05.084Z,5.32
2022-09-06T06:51:33.754Z,5.93
2022-09-06T06:54:00.695Z,5.95
2022-09-06T06:56:36.825Z,3.97
2022-09-06T06:59:06.958Z,5.07
2022-09-06T07:01:35.885Z,3.03
2022-09-06T07:04:03.453Z,2.90
2022-09-06T07:09:19.088Z,4.55
2022-09-06T07:11:46.563Z,4.40
2022-09-06T07:14:13.384Z,4.55
2022-09-06T07:16:40.270Z,3.88
2022-09-06T07:19:07.717Z,3.30
2022-09-06T07:24:10.414Z,3.63
2022-09-06T07:26:39.726Z,2.92
2022-09-06T07:29:07.802Z,3.97
2022-09-06T07:34:22.519Z,3.13
2022-09-06T07:36:53.623Z,3.45
2022-09-06T07:39:20.846Z,3.50
2022-09-06T07:41:47.676Z,6.80
2022-09-06T07:44:14.585Z,4.80
2022-09-06T07:46:41.789Z,4.05
2022-09-06T07:49:08.826Z,4.60
2022-09-06T07:51:35.747Z,3.80
2022-09-06T07:54:26.181Z,3.17
2022-09-06T07:56:49.799Z,2.30
2022-09-06T07:59:16.778Z,4.30
2022-09-06T08:01:43.633Z,4.82
2022-09-06T08:04:14.817Z,1.02
2022-09-06T08:09:39.233Z,1.83
2022-09-06T08:12:08.985Z,2.65
2022-09-06T08:14:36.451Z,2.90
2022-09-06T08:17:04.175Z,2.28
2022-09-06T08:19:31.356Z,4.07
2022-09-06T08:21:58.265Z,3.30
2022-09-06T08:24:25.323Z,6.13
2022-09-06T08:26:52.260Z,3.28
2022-09-06T08:29:20.111Z,2.70
2022-09-06T08:31:47.015Z,3.75
2022-09-06T08:34:15.197Z,2.70
2022-09-06T08:36:42.962Z,4.30
2022-09-06T08:39:10.621Z,4.70
2022-09-06T08:41:40.262Z,3.40
2022-09-06T08:47:04.625Z,3.42
2022-09-06T08:49:35.915Z,2.78
2022-09-06T08:53:13.686Z,4.93
2022-09-06T08:55:44.715Z,4.95
2022-09-06T08:58:26.532Z,4.95
2022-09-06T09:01:06.385Z,4.40
2022-09-06T09:03:37.857Z,5.60
2022-09-06T09:06:07.680Z,5.33
2022-09-06T09:08:59.252Z,3.88
2022-09-06T09:11:26.546Z,2.40
2022-09-06T09:13:59.332Z,1.75
2022-09-06T09:16:26.857Z,1.70
2022-09-06T09:19:05.408Z,3.22
2022-09-06T09:21:36.496Z,2.28
2022-09-06T09:24:06.622Z,2.08
2022-09-06T09:26:54.250Z,2.47
2022-09-06T09:29:26.740Z,2.20
2022-09-06T09:31:55.989Z,11.13
2022-09-06T09:34:33.987Z,4.03
2022-09-06T09:40:50.502Z,4.53
2022-09-06T09:43:28.586Z,10.73
2022-09-06T09:46:07.806Z,13.18
2022-09-06T09:48:34.779Z,11.50
2022-09-06T09:51:27.657Z,10.13
2022-09-06T09:56:34.521Z,12.90
2022-09-06T09:59:03.706Z,13.52
2022-09-06T10:01:33.884Z,13.32
2022-09-06T10:09:37.510Z,29.55
2022-09-06T10:12:05.046Z,27.73
2022-09-06T10:14:47.189Z,26.70
2022-09-06T10:17:51.070Z,28.85
2022-09-06T10:20:18.332Z,26.40
2022-09-06T10:23:00.038Z,26.17
2022-09-06T10:25:46.313Z,24.67
2022-09-06T10:28:25.511Z,23.30
2022-09-06T10:31:14.108Z,24.90
2022-09-06T10:34:13.055Z,20.42
2022-09-06T10:37:01.772Z,13.20
2022-09-06T10:39:55.990Z,11.75
2022-09-06T10:42:55.432Z,13.52
2022-09-06T10:45:40.118Z,10.07
2022-09-06T10:48:18.894Z,9.02
2022-09-06T10:50:57.473Z,9.10
2022-09-06T10:53:48.594Z,8.50
2022-09-06T10:56:32.727Z,10.52
2022-09-06T10:59:38.805Z,10.27
2022-09-06T11:02:15.192Z,12.20
2022-09-06T11:07:38.235Z,9.25
2022-09-06T11:10:31.675Z,7.65
2022-09-06T11:13:21.225Z,6.38
2022-09-06T11:16:03.512Z,6.00
2022-09-06T11:18:46.949Z,3.70
2022-09-06T11:21:51.139Z,3.88
2022-09-06T11:25:19.499Z,5.35
2022-09-06T11:27:57.323Z,3.05
2022-09-06T11:30:27.103Z,2.78
2022-09-06T11:33:28.196Z,2.20
2022-09-06T11:36:17.014Z,4.90
2022-09-06T11:39:01.256Z,2.40
2022-09-06T11:41:35.015Z,2.90
2022-09-06T11:44:02.756Z,2.75
2022-09-06T11:46:35.731Z,3.45
2022-09-06T11:49:07.945Z,4.88
2022-09-06T11:51:45.662Z,4.15
2022-09-06T11:54:15.605Z,5.95
2022-09-06T11:57:12.187Z,6.78
2022-09-06T11:59:49.315Z,5.90
2022-09-06T12:02:41.227Z,5.55
2022-09-06T12:05:25.700Z,6.75
2022-09-06T12:08:25.110Z,6.75
2022-09-06T12:11:04.363Z,6.47
2022-09-06T12:13:52.508Z,11.43
2022-09-06T12:16:20.901Z,13.90
2022-09-06T12:18:47.676Z,9.57
2022-09-06T12:21:47.579Z,10.43
2022-09-06T12:24:36.334Z,9.32
2022-09-06T12:27:22.773Z,10.77
2022-09-06T12:30:01.959Z,8.60
2022-09-06T12:32:36.963Z,6.03
2022-09-06T12:37:59.935Z,5.57
2022-09-06T12:40:35.239Z,6.93
2022-09-06T12:43:04.752Z,7.90
2022-09-06T12:45:32.137Z,8.93
2022-09-06T12:48:11.602Z,4.03
2022-09-06T12:50:40.516Z,6.78
2022-09-06T12:53:26.660Z,3.65
2022-09-06T12:56:09.210Z,6.05
